Time,TemperatureF,DewpointF,PressureIn,WindDirection,WindDirectionDegrees,WindSpeedMPH,WindSpeedGustMPH,Humidity,HourlyPrecipIn,Conditions,Clouds,dailyrainin,SoftwareType,DateUTC
2014-09-23 00:05:00,44.7,43.4,30.27,NW,323,0.0,0.0,95,0.00,,,0.00,Wunderground v.1.15,2014-09-23 04:05:00,
2014-09-23 00:10:00,44.5,43.2,30.27,NW,323,0.0,0.0,95,0.00,,,0.00,Wunderground v.1.15,2014-09-23 04:10:00,
2014-09-23 00:20:00,44.0,42.7,30.27,NW,323,0.0,0.0,95,0.00,,,0.00,Wunderground v.1.15,2014-09-23 04:20:00,
2014-09-23 00:25:00,43.8,42.5,30.27,NW,323,0.0,0.0,95,0.00,,,0.00,Wunderground v.1.15,2014-09-23 04:25:00,
2014-09-23 00:35:00,43.7,42.6,30.27,NW,323,0.0,0.0,96,0.00,,,0.00,Wunderground v.1.15,2014-09-23 04:35:00,
2014-09-23 00:40:00,43.8,42.7,30.27,NW,323,0.0,0.0,96,0.00,,,0.00,Wunderground v.1.15,2014-09-23 04:40:00,
2014-09-23 00:50:00,43.7,42.6,30.27,NW,323,0.0,0.0,96,0.00,,,0.00,Wunderground v.1.15,2014-09-23 04:50:00,
2014-09-23 00:55:00,43.8,42.7,30.27,NW,323,0.0,0.0,96,0.00,,,0.00,Wunderground v.1.15,2014-09-23 04:55:00,
2014-09-23 01:05:00,43.9,42.8,30.27,NW,323,0.0,0.0,96,0.00,,,0.00,Wunderground v.1.15,2014-09-23 05:05:00,
2014-09-23 01:15:00,43.5,42.4,30.28,NW,323,0.0,0.0,96,0.00,,,0.00,Wunderground v.1.15,2014-09-23 05:15:00,
2014-09-23 01:25:00,43.5,42.4,30.28,NW,323,0.0,0.0,96,0.00,,,0.00,Wunderground v.1.15,2014-09-23 05:25:00,
2014-09-23 01:30:00,43.5,42.4,30.27,NW,323,0.0,0.0,96,0.00,,,0.00,Wunderground v.1.15,2014-09-23 05:30:00,
2014-09-23 01:40:00,43.6,42.8,30.27,NW,323,0.0,0.0,97,0.00,,,0.00,Wunderground v.1.15,2014-09-23 05:40:00,
2014-09-23 01:50:00,43.3,42.2,30.27,NW,323,0.0,0.0,96,0.00,,,0.00,Wunderground v.1.15,2014-09-23 05:50:00,
2014-09-23 01:55:00,43.1,42.0,30.27,NW,323,0.0,0.0,96,0.00,,,0.00,Wunderground v.1.15,2014-09-23 05:55:00,
2014-09-23 02:05:00,42.8,41.7,30.28,NW,323,0.0,0.0,96,0.00,,,0.00,Wunderground v.1.15,2014-09-23 06:05:00,
2014-09-23 02:10:00,42.6,41.5,30.28,NW,323,0.0,0.0,96,0.00,,,0.00,Wunderground v.1.15,2014-09-23 06:10:00,
2014-09-23 02:20:00,42.1,41.0,30.28,NW,323,0.0,0.0,96,0.00,,,0.00,Wunderground v.1.15,2014-09-23 06:20:00,
2014-09-23 02:30:00,42.1,41.0,30.28,NW,323,0.0,0.0,96,0.00,,,0.00,Wunderground v.1.15,2014-09-23 06:30:00,
2014-09-23 02:35:00,41.9,40.8,30.28,NW,323,0.0,0.0,96,0.00,,,0.00,Wunderground v.1.15,2014-09-23 06:35:00,
2014-09-23 02:40:00,41.8,41.0,30.28,NW,323,0.0,0.0,97,0.00,,,0.00,Wunderground v.1.15,2014-09-23 06:40:00,
2014-09-23 02:50:00,41.6,40.8,30.28,NW,323,0.0,0.0,97,0.00,,,0.00,Wunderground v.1.15,2014-09-23 06:50:00,
2014-09-23 02:55:00,41.6,40.8,30.28,NW,323,0.0,0.0,97,0.00,,,0.00,Wunderground v.1.15,2014-09-23 06:55:00,
2014-09-23 03:05:00,41.3,40.5,30.28,NW,323,0.0,0.0,97,0.00,,,0.00,Wunderground v.1.15,2014-09-23 07:05:00,
2014-09-23 03:10:00,41.2,40.4,30.28,NW,323,0.0,0.0,97,0.00,,,0.00,Wunderground v.1.15,2014-09-23 07:10:00,
2014-09-23 03:20:00,41.5,40.7,30.27,NW,323,0.0,0.0,97,0.00,,,0.00,Wunderground v.1.15,2014-09-23 07:20:00,
2014-09-23 03:30:00,41.3,40.5,30.27,NW,323,0.0,0.0,97,0.00,,,0.00,Wunderground v.1.15,2014-09-23 07:30:00,
2014-09-23 03:35:00,41.2,40.4,30.27,NW,323,0.0,0.0,97,0.00,,,0.00,Wunderground v.1.15,2014-09-23 07:35:00,
2014-09-23 03:45:00,41.4,40.6,30.27,NW,323,0.0,0.0,97,0.00,,,0.00,Wunderground v.1.15,2014-09-23 07:45:00,
2014-09-23 03:50:00,41.4,40.6,30.27,NW,323,0.0,0.0,97,0.00,,,0.00,Wunderground v.1.15,2014-09-23 07:50:00,
2014-09-23 04:00:00,41.1,40.3,30.27,NW,323,0.0,0.0,97,0.00,,,0.00,Wunderground v.1.15,2014-09-23 08:00:00,
2014-09-23 04:05:00,40.7,39.9,30.27,NW,323,0.0,0.0,97,0.00,,,0.00,Wunderground v.1.15,2014-09-23 08:05:00,
2014-09-23 04:15:00,40.5,39.7,30.27,NW,323,0.0,0.0,97,0.00,,,0.00,Wunderground v.1.15,2014-09-23 08:15:00,
2014-09-23 04:20:00,40.3,39.5,30.27,NW,323,0.0,0.0,97,0.00,,,0.00,Wunderground v.1.15,2014-09-23 08:20:00,
2014-09-23 04:30:00,40.1,39.3,30.27,NW,323,0.0,0.0,97,0.00,,,0.00,Wunderground v.1.15,2014-09-23 08:30:00,
2014-09-23 04:35:00,40.0,39.2,30.27,NW,323,0.0,0.0,97,0.00,,,0.00,Wunderground v.1.15,2014-09-23 08:35:00,
2014-09-23 04:45:00,40.3,39.5,30.27,NW,323,0.0,0.0,97,0.00,,,0.00,Wunderground v.1.15,2014-09-23 08:45:00,
2014-09-23 04:55:00,40.7,39.9,30.28,NW,323,0.0,0.0,97,0.00,,,0.00,Wunderground v.1.15,2014-09-23 08:55:00,
2014-09-23 05:05:00,40.6,39.8,30.27,NW,323,0.0,0.0,97,0.00,,,0.00,Wunderground v.1.15,2014-09-23 09:05:00,
2014-09-23 05:10:00,40.6,39.8,30.27,NW,323,0.0,0.0,97,0.00,,,0.00,Wunderground v.1.15,2014-09-23 09:10:00,
2014-09-23 05:20:00,40.2,39.4,30.28,NW,323,0.0,0.0,97,0.00,,,0.00,Wunderground v.1.15,2014-09-23 09:20:00,
2014-09-23 05:30:00,39.8,39.0,30.28,NW,323,0.0,0.0,97,0.00,,,0.00,Wunderground v.1.15,2014-09-23 09:30:00,
2014-09-23 05:35:00,39.6,38.8,30.28,NW,323,0.0,0.0,97,0.00,,,0.00,Wunderground v.1.15,2014-09-23 09:35:00,
2014-09-23 05:40:00,39.4,38.6,30.29,NW,323,0.0,0.0,97,0.00,,,0.00,Wunderground v.1.15,2014-09-23 09:40:00,
2014-09-23 05:50:00,39.2,38.4,30.29,NW,323,0.0,0.0,97,0.00,,,0.00,Wunderground v.1.15,2014-09-23 09:50:00,
2014-09-23 05:55:00,39.2,38.4,30.29,NW,323,0.0,0.0,97,0.00,,,0.00,Wunderground v.1.15,2014-09-23 09:55:00,
2014-09-23 06:05:00,39.0,38.2,30.29,NW,323,0.0,0.0,97,0.00,,,0.00,Wunderground v.1.15,2014-09-23 10:05:00,
2014-09-23 06:15:00,38.8,38.0,30.29,NW,323,0.0,0.0,97,0.00,,,0.00,Wunderground v.1.15,2014-09-23 10:15:00,
2014-09-23 06:25:00,38.7,37.9,30.30,NW,323,0.0,0.0,97,0.00,,,0.00,Wunderground v.1.15,2014-09-23 10:25:00,
2014-09-23 06:35:00,38.4,37.6,30.30,NW,323,0.0,0.0,97,0.00,,,0.00,Wunderground v.1.15,2014-09-23 10:35:00,
2014-09-23 06:45:00,38.5,37.7,30.30,NW,323,0.0,0.0,97,0.00,,,0.00,Wunderground v.1.15,2014-09-23 10:45:00,
2014-09-23 06:50:00,38.4,37.6,30.30,NW,323,0.0,0.0,97,0.00,,,0.00,Wunderground v.1.15,2014-09-23 10:50:00,
2014-09-23 07:00:00,38.5,38.0,30.30,NW,323,0.0,0.0,98,0.00,,,0.00,Wunderground v.1.15,2014-09-23 11:00:00,
2014-09-23 07:10:00,38.9,38.4,30.30,NW,323,0.0,0.0,98,0.00,,,0.00,Wunderground v.1.15,2014-09-23 11:10:00,
2014-09-23 07:15:00,38.9,38.4,30.31,NW,323,0.0,0.0,98,0.00,,,0.00,Wunderground v.1.15,2014-09-23 11:15:00,
2014-09-23 07:20:00,38.6,38.1,30.31,NW,323,0.0,0.0,98,0.00,,,0.00,Wunderground v.1.15,2014-09-23 11:20:00,
2014-09-23 07:30:00,39.1,38.6,30.31,NW,323,0.0,0.0,98,0.00,,,0.00,Wunderground v.1.15,2014-09-23 11:30:00,
2014-09-23 07:40:00,39.0,38.5,30.31,NW,323,0.0,0.0,98,0.00,,,0.00,Wunderground v.1.15,2014-09-23 11:40:00,
2014-09-23 07:45:00,39.0,38.5,30.32,NW,323,0.0,0.0,98,0.00,,,0.00,Wunderground v.1.15,2014-09-23 11:45:00,
2014-09-23 07:55:00,39.5,39.0,30.31,NW,323,0.0,0.0,98,0.00,,,0.00,Wunderground v.1.15,2014-09-23 11:55:00,
2014-09-23 08:05:00,39.4,38.9,30.32,NW,323,0.0,0.0,98,0.00,,,0.00,Wunderground v.1.15,2014-09-23 12:05:00,
2014-09-23 08:10:00,39.3,38.8,30.32,NW,323,0.0,0.0,98,0.00,,,0.00,Wunderground v.1.15,2014-09-23 12:10:00,
2014-09-23 08:20:00,39.3,38.8,30.32,NW,323,0.0,0.0,98,0.00,,,0.00,Wunderground v.1.15,2014-09-23 12:20:00,
2014-09-23 08:25:00,39.7,39.2,30.32,NW,323,0.0,0.0,98,0.00,,,0.00,Wunderground v.1.15,2014-09-23 12:25:00,
2014-09-23 08:30:00,40.4,39.9,30.32,NW,323,0.0,0.0,98,0.00,,,0.00,Wunderground v.1.15,2014-09-23 12:30:00,
2014-09-23 08:40:00,41.5,41.0,30.32,NW,323,0.0,0.0,98,0.00,,,0.00,Wunderground v.1.15,2014-09-23 12:40:00,
2014-09-23 08:50:00,42.9,42.4,30.33,NW,323,0.0,0.0,98,0.00,,,0.00,Wunderground v.1.15,2014-09-23 12:50:00,
2014-09-23 08:55:00,43.9,43.4,30.33,NW,323,0.0,0.0,98,0.00,,,0.00,Wunderground v.1.15,2014-09-23 12:55:00,
2014-09-23 09:05:00,45.4,44.9,30.33,NW,323,0.0,0.0,98,0.00,,,0.00,Wunderground v.1.15,2014-09-23 13:05:00,
2014-09-23 09:15:00,46.2,45.7,30.33,NW,323,0.0,0.0,98,0.00,,,0.00,Wunderground v.1.15,2014-09-23 13:15:00,
2014-09-23 09:25:00,46.9,46.4,30.34,NW,323,0.0,0.0,98,0.00,,,0.00,Wunderground v.1.15,2014-09-23 13:25:00,